• Join FlightAware (Why Join?)
  • Login
  • US Flag 
05:15AM EDT


 

Airport Tracker/Info


-or-


 

Live Flight TrackerFlight Track Log ✈ UAL3598 ✈ 17-Jun-2014 ✈ KEWR - KBGM

Flight Track Log - Related Links

Times and Time Zones

All times are in EDT time to prevent confusion due to time zone crossing. See the UAL3598 flight status page for this flight to view local times or setup timezone preferences in your user account.

Time Position Orientation Groundspeed Altitude Reporting Facility
EDT Latitude Longitude Course Direction KTS MPH feet Rate Location/Type
10:07PM 40.6500 -74.1667 270° West 144 166 2,300  Level New York TRACON
10:08PM 40.6500 -74.2167 270° West 204 235 3,600 1,740 Climbing New York TRACON
10:09PM 40.7000 -74.2333 346° North 196 226 5,700 2,040 Climbing New York TRACON
10:10PM 40.7500 -74.2500 346° North 177 204 7,900 1,620 Climbing New York TRACON
10:13PM 40.8503 -74.3100 336° Northwest 177 204 11,200 1,260 Climbing New York Center
10:14PM 40.9014 -74.3372 338° Northwest 188 216 12,000 360 Climbing New York Center
10:15PM 40.9653 -74.3681 340° North 217 250 12,000  Level New York Center
10:16PM 41.0308 -74.4019 339° North 239 275 12,000  Level New York Center
10:17PM 41.0883 -74.4297 340° North 248 285 12,000  Level New York Center
10:18PM 41.1600 -74.4694 337° Northwest 248 285 12,000  Level New York Center
10:19PM 41.1994 -74.5322 310° West 237 273 12,000  Level New York Center
10:20PM 41.2450 -74.6067 309° West 237 273 12,000  Level New York Center
10:21PM 41.2847 -74.6694 310° West 237 273 12,000  Level New York Center
10:22PM 41.3300 -74.7467 308° West 242 278 12,000  Level New York Center
10:23PM 41.3736 -74.8156 310° West 242 278 12,000  Level New York Center
10:24PM 41.4147 -74.8844 309° West 237 273 12,000  Level New York Center
10:25PM 41.4542 -74.9506 309° West 242 278 12,000  Level New York Center
10:26PM 41.4956 -75.0169 310° West 237 273 12,000  Level New York Center
10:27PM 41.5406 -75.0944 308° West 237 273 12,000  Level New York Center
10:28PM 41.5819 -75.1611 310° West 237 273 12,000 -60 Level New York Center
10:29PM 41.6192 -75.2244 308° West 237 273 11,900 -420 Descending New York Center
10:30PM 41.6603 -75.2939 308° West 237 273 11,200 -900 Descending New York Center
10:31PM 41.7072 -75.3692 310° West 237 273 10,200 -900 Descending New York Center
10:32PM 41.7589 -75.4311 318° Northwest 244 281 9,500 -780 Descending New York Center
10:33PM 41.8153 -75.4853 324° Northwest 244 281 8,700 -840 Descending New York Center
10:34PM 41.8767 -75.5119 342° North 249 287 7,900 -840 Descending New York Center
10:35PM 41.9417 -75.5500 336° Northwest 255 293 7,100 -900 Descending New York Center
10:36PM 42.0172 -75.5889 339° North 260 299 6,200 -540 Descending New York Center
10:37PM 42.0767 -75.6128 343° North 260 299 6,100 -60 Descending New York Center
10:38PM 42.1328 -75.6617 327° Northwest 254 292 6,100 -240 Level New York Center
10:39PM 42.1869 -75.7133 325° Northwest 242 278 5,700 -600 Descending New York Center
10:40PM 42.2347 -75.7644 322° Northwest 236 272 5,000 -600 Descending New York Center
10:41PM 42.2711 -75.8403 303° West 218 251 4,500 -780 Descending New York Center
10:42PM 42.2789 -75.8997 280° West 185 213 3,500 -840 Descending New York Center
10:43PM 42.2708 -75.9411 255° West 152 175 2,900 -420 Descending New York Center
10:44PM 42.2569 -75.9736 240° Southwest 121 139 2,700 -240 Descending New York Center
10:46PM 42.2084 -75.9796 225° Southwest  Level Estimated
10:53PM 42.2084 -75.9796 North  Level Estimated